Braxton, Indiana
Current Conditions -  °F | °C
As of 1:55 AM on Tuesday 21 Oct 2014 (Local Time) from KHNB Reporting Station
Clear Clear  
Wind Chill: 54°   Ceiling: Unl
Heat Index: 54°   Visibility: 10mi
Dew Point: 43°   Wind: 6mph
Humidity: 67%   Direction: 340°NNW
Pressure: 29.99"   Gusts: NA
Location:  38.5454°N, 86.4243°W
Report Text: KHNB 210555Z AUTO 34005KT 10SM CLR 12/06 A2999 RMK AO1 10160 20120 402100060 52007
Loading
Personal Weather Stations






























Interactive Weather Map
Tropical Storm Tracking
New forecast layout! Learn more

10-Day Weather Forecast

Advertisements
Track Severe Weather on mobile